^^
Station Historical Data
 
Daily Summary for January 16, 2019 Units:  English    Metric   Both
« Previous Day
Next Day »
Daily Weekly Monthly Yearly Custom
  Current: High: Low: Average:
Temperature: 28.6 °F TemperatureF °F 27.0 °F 29.9 °F
Dew Point: 23.7 °F DewpointF °F 19.8 °F 22.8 °F
Humidity: 82 % Humidity % 68 % 73 %
Wind Speed: 4.0 mph WindSpeedMPH mph 0.0 mph 3.6 mph
Wind Gust: 6.0 mph WindSpeedGustMPH mph - -
Wind:SSW - - SSW
Pressure: 30.14 in PressureIn in 30.14 in -
Precipitation: 0.00 in      
Historical Graphs
 
 
Tabular Data for January 16, 2019
Time Temperature Dew Point Pressure Wind Wind Speed Wind Gust Humidity Rainfall Rate (Hourly)
TemperatureF °F DewpointF °F PressureIn in Calm     Humidity % HourlyPrecipIn in
00:04 27.3 °F 19.8 °F 30.31 in SSW 6.9 mph 11.0 mph 73 % 0.00 in
00:09 27.0 °F 20.1 °F 30.30 in SSW 6.0 mph 9.0 mph 75 % 0.00 in
00:14 28.0 °F 20.8 °F 30.30 in SSE 8.1 mph 9.0 mph 74 % 0.00 in
00:19 28.4 °F 20.8 °F 30.29 in SSW 6.9 mph 8.0 mph 73 % 0.00 in
00:24 28.9 °F 21.4 °F 30.29 in SW 6.9 mph 8.0 mph 73 % 0.00 in
00:29 29.5 °F 21.6 °F 30.28 in South 4.9 mph 6.0 mph 72 % 0.00 in
00:34 29.7 °F 21.4 °F 30.28 in Calm   3.0 mph 71 % 0.00 in
00:39 29.1 °F 21.2 °F 30.27 in South 6.0 mph 7.0 mph 72 % 0.00 in
00:44 28.9 °F 21.0 °F 30.27 in South 6.9 mph 8.0 mph 72 % 0.00 in
00:49 28.6 °F 21.0 °F 30.26 in South 6.0 mph 9.0 mph 73 % 0.00 in
00:54 28.4 °F 21.2 °F 30.26 in SSW 6.0 mph 11.0 mph 74 % 0.00 in
00:59 28.8 °F 21.9 °F 30.25 in SSE 2.9 mph 8.0 mph 75 % 0.00 in
01:04 28.9 °F 21.7 °F 30.25 in West 0.9 mph 1.0 mph 74 % 0.00 in
01:09 28.6 °F 21.7 °F 30.25 in SW 4.9 mph 8.0 mph 75 % 0.00 in
01:14 29.7 °F 22.5 °F 30.24 in SW 4.9 mph 5.0 mph 74 % 0.00 in
01:19 31.1 °F 22.8 °F 30.24 in WSW 2.9 mph 4.0 mph 71 % 0.00 in
01:24 32.2 °F 23.2 °F 30.24 in SW 0.9 mph 3.0 mph 69 % 0.00 in
01:29 32.5 °F 23.2 °F 30.24 in SW 4.0 mph 5.0 mph 68 % 0.00 in
01:34 32.2 °F 23.2 °F 30.24 in SSE 6.9 mph 8.0 mph 69 % 0.00 in
01:39 32.5 °F 24.3 °F 30.24 in SSW 6.0 mph 10.0 mph 71 % 0.00 in
01:44 32.5 °F 24.3 °F 30.24 in SSE 8.1 mph 10.0 mph 71 % 0.00 in
01:49 33.3 °F 24.6 °F 30.24 in SE 4.9 mph 10.0 mph 70 % 0.00 in
01:54 33.3 °F 23.9 °F 30.23 in North 2.9 mph 3.0 mph 68 % 0.00 in
01:59 31.1 °F 23.5 °F 30.23 in West 2.9 mph 3.0 mph 73 % 0.00 in
02:04 31.8 °F 23.5 °F 30.23 in West 4.0 mph 4.0 mph 71 % 0.00 in
02:09 32.4 °F 24.3 °F 30.23 in SW 0.9 mph 6.0 mph 72 % 0.00 in
02:14 32.5 °F 23.9 °F 30.22 in SW 0.9 mph 3.0 mph 70 % 0.00 in
02:19 32.4 °F 24.1 °F 30.22 in WSW 4.0 mph 5.0 mph 71 % 0.00 in
02:24 33.1 °F 24.4 °F 30.22 in West 2.0 mph 3.0 mph 70 % 0.00 in
02:29 32.9 °F 24.3 °F 30.22 in West 0.9 mph 1.0 mph 70 % 0.00 in
02:34 32.2 °F 23.9 °F 30.22 in Calm   1.0 mph 71 % 0.00 in
02:39 31.3 °F 23.7 °F 30.21 in West 0.9 mph 2.0 mph 73 % 0.00 in
02:44 30.9 °F 23.5 °F 30.21 in West 0.9 mph 1.0 mph 74 % 0.00 in
02:49 30.9 °F 23.4 °F 30.21 in Calm   1.0 mph 73 % 0.00 in
02:54 30.4 °F 23.2 °F 30.21 in Calm   1.0 mph 74 % 0.00 in
02:59 30.6 °F 23.5 °F 30.21 in Calm     75 % 0.00 in
03:04 30.9 °F 23.5 °F 30.20 in Calm     74 % 0.00 in
03:09 30.9 °F 23.5 °F 30.20 in Calm     74 % 0.00 in
03:14 30.9 °F 23.5 °F 30.20 in Calm   1.0 mph 74 % 0.00 in
03:19 31.3 °F 23.7 °F 30.19 in SE 0.9 mph 2.0 mph 73 % 0.00 in
03:24 31.3 °F 23.7 °F 30.19 in South 2.9 mph 3.0 mph 73 % 0.00 in
03:29 31.1 °F 23.7 °F 30.19 in Calm   1.0 mph 74 % 0.00 in
03:34 30.7 °F 23.7 °F 30.19 in South 6.9 mph 9.0 mph 75 % 0.00 in
03:39 30.2 °F 23.5 °F 30.19 in Calm   5.0 mph 76 % 0.00 in
03:44 30.7 °F 23.7 °F 30.19 in SE 6.0 mph 9.0 mph 75 % 0.00 in
03:49 30.4 °F 24.1 °F 30.18 in SSE 2.9 mph 7.0 mph 77 % 0.00 in
03:54 29.5 °F 23.2 °F 30.18 in SSE 4.9 mph 14.0 mph 77 % 0.00 in
03:59 29.3 °F 23.4 °F 30.18 in SSW 6.9 mph 11.0 mph 78 % 0.00 in
04:04 29.7 °F 23.9 °F 30.17 in SSE 0.9 mph 14.0 mph 79 % 0.00 in
04:09 29.3 °F 23.5 °F 30.17 in South 4.0 mph 9.0 mph 79 % 0.00 in
04:14 29.5 °F 24.1 °F 30.17 in SSW 4.0 mph 10.0 mph 80 % 0.00 in
04:19 30.0 °F 24.3 °F 30.17 in SW 8.9 mph 9.0 mph 79 % 0.00 in
04:24 30.6 °F 24.8 °F 30.16 in SSW 4.0 mph 7.0 mph 79 % 0.00 in
04:29 30.4 °F 24.3 °F 30.16 in SW 6.9 mph 7.0 mph 78 % 0.00 in
04:34 30.6 °F 24.3 °F 30.16 in Calm   4.0 mph 77 % 0.00 in
04:39 30.2 °F 24.3 °F 30.16 in SW 4.9 mph 7.0 mph 78 % 0.00 in
04:44 29.8 °F 24.1 °F 30.15 in South 4.9 mph 6.0 mph 79 % 0.00 in
04:49 30.0 °F 24.3 °F 30.15 in Calm   1.0 mph 79 % 0.00 in
04:54 29.3 °F 23.5 °F 30.15 in SSE 6.0 mph 13.0 mph 79 % 0.00 in
04:59 28.6 °F 23.7 °F 30.15 in WSW 6.0 mph 9.0 mph 82 % 0.00 in
05:04 28.8 °F 23.9 °F 30.14 in SSW 6.9 mph 12.0 mph 82 % 0.00 in
05:09 28.6 °F 23.7 °F 30.14 in SW 6.0 mph 9.0 mph 82 % 0.00 in
05:14 28.8 °F 23.9 °F 30.14 in SW 2.9 mph 6.0 mph 82 % 0.00 in
05:19 28.6 °F 23.7 °F 30.14 in SSW 4.0 mph 6.0 mph 82 % 0.00 in
Evergreen Colorado, USA
Compliments of Weather Underground - 2.25 mb